Time;durP1;ratioP1;P1;durP2;ratioP2;P2;SDS_P1;SDS_P2;PMS_P1;PMS_P2;Temp;Humidity;BMP_temperature;BMP_pressure;BME280_temperature;BME280_humidity;BME280_pressure;Samples;Min_cycle;Max_cycle;Signal;HPM_P1;HPM_P2
2022/07/18 00:01:44;;;;;;;;;;;13.80;99.90;;;;;;5055567;28;19913;-71
2022/07/18 00:04:10;;;;;;;;;;;13.80;99.90;;;;;;5055735;28;19917;-71
2022/07/18 00:06:35;;;;;;;;;;;13.70;99.90;;;;;;5073743;28;19955;-71
2022/07/18 00:09:01;;;;;;;;;;;13.70;99.90;;;;;;5073629;28;20012;-71
2022/07/18 00:11:26;;;;;;;;;;;13.80;99.90;;;;;;5073505;28;19962;-71
2022/07/18 00:13:52;;;;;;;;;;;13.70;99.90;;;;;;5073462;28;19909;-70
2022/07/18 00:16:17;;;;;;;;;;;13.70;99.90;;;;;;5073261;28;19913;-71
2022/07/18 00:18:43;;;;;;;;;;;13.70;99.90;;;;;;5055135;28;19912;-70
2022/07/18 00:21:09;;;;;;;;;;;13.70;99.90;;;;;;5073037;28;20050;-71
2022/07/18 00:23:34;;;;;;;;;;;13.70;99.90;;;;;;5073198;28;19909;-70
2022/07/18 00:26:00;;;;;;;;;;;13.70;99.90;;;;;;5073348;28;19920;-70
2022/07/18 00:28:25;;;;;;;;;;;13.70;99.90;;;;;;5073063;28;19919;-71
2022/07/18 00:30:51;;;;;;;;;;;13.70;99.90;;;;;;5073383;28;19917;-71
2022/07/18 00:33:16;;;;;;;;;;;13.70;99.90;;;;;;5073248;28;20261;-71
2022/07/18 00:35:42;;;;;;;;;;;13.70;99.90;;;;;;5073171;28;19916;-70
2022/07/18 00:38:07;;;;;;;;;;;13.60;99.90;;;;;;5072922;28;20355;-71
2022/07/18 00:40:33;;;;;;;;;;;13.60;99.90;;;;;;5071137;28;20402;-71
2022/07/18 00:42:59;;;;;;;;;;;13.70;99.90;;;;;;5054866;28;19970;-70
2022/07/18 00:45:24;;;;;;;;;;;13.60;99.90;;;;;;5073144;28;19917;-70
2022/07/18 00:47:52;;;;;;;;;;;13.70;99.90;;;;;;5072804;28;19916;-70
2022/07/18 00:50:18;;;;;;;;;;;13.70;99.90;;;;;;5072994;28;19917;-70
2022/07/18 00:52:44;;;;;;;;;;;13.70;99.90;;;;;;5072659;28;19913;-71
2022/07/18 00:55:10;;;;;;;;;;;13.60;99.90;;;;;;5072877;28;19928;-70
2022/07/18 00:57:36;;;;;;;;;;;13.60;99.90;;;;;;5072625;28;20318;-71
2022/07/18 01:02:47;;;;;;;;;;;13.60;99.90;;;;;;5072834;28;19978;-70
2022/07/18 01:05:12;;;;;;;;;;;13.50;99.90;;;;;;5072740;28;19920;-70
2022/07/18 01:07:38;;;;;;;;;;;13.50;99.90;;;;;;5054595;28;19909;-69
2022/07/18 01:10:04;;;;;;;;;;;13.40;99.90;;;;;;5054434;28;20011;-70
2022/07/18 01:12:30;;;;;;;;;;;13.40;99.90;;;;;;5072357;28;19973;-70
2022/07/18 01:14:56;;;;;;;;;;;13.50;99.90;;;;;;5072472;28;19958;-70
2022/07/18 01:17:22;;;;;;;;;;;13.50;99.90;;;;;;5072114;28;19908;-71
2022/07/18 01:19:47;;;;;;;;;;;13.50;99.90;;;;;;5072469;28;20371;-70
2022/07/18 01:22:14;;;;;;;;;;;13.40;99.90;;;;;;5071961;28;19985;-70
2022/07/18 01:24:40;;;;;;;;;;;13.40;99.90;;;;;;5072049;28;19966;-70
2022/07/18 01:27:06;;;;;;;;;;;13.50;99.90;;;;;;5072113;28;19909;-70
2022/07/18 01:29:31;;;;;;;;;;;13.40;99.90;;;;;;5072133;28;19943;-70
2022/07/18 01:32:03;;;;;;;;;;;13.40;99.90;;;;;;5054099;28;20007;-70
2022/07/18 01:34:28;;;;;;;;;;;13.50;99.90;;;;;;5071936;28;20470;-70
2022/07/18 01:36:54;;;;;;;;;;;13.50;99.90;;;;;;5053739;28;19917;-70
2022/07/18 01:39:19;;;;;;;;;;;13.50;99.90;;;;;;5071821;28;19974;-70
2022/07/18 01:41:45;;;;;;;;;;;13.50;99.90;;;;;;5071312;28;19939;-70
2022/07/18 01:44:10;;;;;;;;;;;13.40;99.90;;;;;;5071834;28;19966;-69
2022/07/18 01:46:36;;;;;;;;;;;13.40;99.90;;;;;;5071419;28;19948;-70
2022/07/18 01:49:02;;;;;;;;;;;13.40;99.90;;;;;;5071499;28;20356;-70
2022/07/18 01:51:27;;;;;;;;;;;13.50;99.90;;;;;;5071198;28;19909;-70
2022/07/18 01:53:55;;;;;;;;;;;13.40;99.90;;;;;;5071134;28;19916;-70
2022/07/18 01:56:20;;;;;;;;;;;13.30;99.90;;;;;;5071384;28;19958;-70
2022/07/18 01:58:46;;;;;;;;;;;13.30;99.90;;;;;;5071182;28;19966;-70
2022/07/18 02:01:12;;;;;;;;;;;13.30;99.90;;;;;;5071320;28;19920;-70
2022/07/18 02:03:37;;;;;;;;;;;13.30;99.90;;;;;;5071541;28;20272;-70
2022/07/18 02:06:03;;;;;;;;;;;13.30;99.90;;;;;;5071297;28;19920;-70
2022/07/18 02:08:28;;;;;;;;;;;13.20;99.90;;;;;;5071235;28;20326;-70
2022/07/18 02:10:54;;;;;;;;;;;13.30;99.90;;;;;;5053637;28;19943;-70
2022/07/18 02:13:20;;;;;;;;;;;13.20;99.90;;;;;;5071135;28;19909;-70
2022/07/18 02:15:46;;;;;;;;;;;13.20;99.90;;;;;;5071643;28;19995;-70
2022/07/18 02:18:11;;;;;;;;;;;13.10;99.90;;;;;;5071122;28;20250;-70
2022/07/18 02:20:38;;;;;;;;;;;13.10;99.90;;;;;;5070896;28;19992;-70
2022/07/18 02:23:04;;;;;;;;;;;13.10;99.90;;;;;;5071048;28;19979;-70
2022/07/18 02:25:29;;;;;;;;;;;13.00;99.90;;;;;;5070913;28;19920;-70
2022/07/18 02:27:55;;;;;;;;;;;13.00;99.90;;;;;;5070862;28;19909;-70
2022/07/18 02:30:21;;;;;;;;;;;13.00;99.90;;;;;;5071268;28;20001;-70
2022/07/18 02:32:47;;;;;;;;;;;13.00;99.90;;;;;;5071235;28;19912;-71
2022/07/18 02:35:12;;;;;;;;;;;12.90;99.90;;;;;;5052998;28;19923;-69
2022/07/18 02:37:38;;;;;;;;;;;12.90;99.90;;;;;;5070798;28;20356;-70
2022/07/18 02:40:05;;;;;;;;;;;12.80;99.90;;;;;;5071170;28;19916;-70
2022/07/18 02:42:31;;;;;;;;;;;12.80;99.90;;;;;;5070607;28;19963;-70
2022/07/18 02:44:58;;;;;;;;;;;12.80;99.90;;;;;;5070150;28;21694;-70
2022/07/18 02:47:24;;;;;;;;;;;12.80;99.90;;;;;;5070545;28;19959;-70
2022/07/18 02:49:49;;;;;;;;;;;12.80;99.90;;;;;;5070414;28;20395;-70
2022/07/18 02:52:15;;;;;;;;;;;12.80;99.90;;;;;;5070628;28;19912;-70
2022/07/18 02:54:40;;;;;;;;;;;12.80;99.90;;;;;;5070639;28;19974;-70
2022/07/18 02:57:06;;;;;;;;;;;12.80;99.90;;;;;;5070488;28;19948;-70
2022/07/18 02:59:32;;;;;;;;;;;12.90;99.90;;;;;;5070529;28;19912;-70
2022/07/18 03:01:58;;;;;;;;;;;12.90;99.90;;;;;;5070411;28;19920;-71
2022/07/18 03:04:24;;;;;;;;;;;12.90;99.90;;;;;;5069869;28;19966;-70
2022/07/18 03:06:50;;;;;;;;;;;13.00;99.90;;;;;;5070719;28;19962;-70
2022/07/18 03:09:15;;;;;;;;;;;13.10;99.90;;;;;;5070392;28;20027;-70
2022/07/18 03:11:41;;;;;;;;;;;13.20;99.90;;;;;;5052247;28;20003;-70
2022/07/18 03:14:07;;;;;;;;;;;13.20;99.90;;;;;;5070393;28;19927;-70
2022/07/18 03:16:32;;;;;;;;;;;13.30;99.90;;;;;;5070303;28;20269;-70
2022/07/18 03:18:58;;;;;;;;;;;13.30;99.90;;;;;;5070179;28;19921;-71
2022/07/18 03:21:23;;;;;;;;;;;13.40;99.90;;;;;;5052421;28;20380;-71
2022/07/18 03:23:49;;;;;;;;;;;13.40;99.90;;;;;;5070217;28;19916;-70
2022/07/18 03:26:14;;;;;;;;;;;13.60;99.90;;;;;;5070389;28;19913;-71
2022/07/18 03:28:40;;;;;;;;;;;13.60;99.90;;;;;;5070212;28;19915;-70
2022/07/18 03:31:06;;;;;;;;;;;13.60;99.90;;;;;;5070165;28;20276;-70
2022/07/18 03:33:31;;;;;;;;;;;13.70;99.90;;;;;;5069989;28;19962;-70
2022/07/18 03:35:57;;;;;;;;;;;13.70;99.90;;;;;;5052493;28;20359;-70
2022/07/18 03:38:22;;;;;;;;;;;13.80;99.90;;;;;;5052122;28;20319;-70
2022/07/18 03:40:47;;;;;;;;;;;13.80;99.90;;;;;;5070248;28;19976;-70
2022/07/18 03:43:13;;;;;;;;;;;13.80;99.90;;;;;;5069901;28;19992;-70
2022/07/18 03:45:39;;;;;;;;;;;13.90;99.90;;;;;;5069921;28;20322;-71
2022/07/18 03:48:04;;;;;;;;;;;13.90;99.90;;;;;;5070056;28;19921;-71
2022/07/18 03:50:30;;;;;;;;;;;13.90;99.90;;;;;;5070337;28;20006;-71
2022/07/18 03:52:56;;;;;;;;;;;14.00;99.90;;;;;;5070100;28;19969;-71
2022/07/18 03:55:21;;;;;;;;;;;13.90;99.90;;;;;;5070507;28;20319;-71
2022/07/18 03:57:47;;;;;;;;;;;14.00;99.90;;;;;;5051999;28;19916;-71
2022/07/18 04:00:12;;;;;;;;;;;14.00;99.90;;;;;;5070013;28;20363;-71
2022/07/18 04:02:39;;;;;;;;;;;14.00;99.90;;;;;;5069749;28;19995;-71
2022/07/18 04:05:05;;;;;;;;;;;14.00;99.90;;;;;;5051740;28;19955;-71
2022/07/18 04:07:30;;;;;;;;;;;14.00;99.90;;;;;;5069637;28;20427;-71
2022/07/18 04:09:55;;;;;;;;;;;14.00;99.90;;;;;;5070165;28;20261;-72
2022/07/18 04:12:21;;;;;;;;;;;14.00;99.90;;;;;;5069765;28;19964;-70
2022/07/18 04:14:46;;;;;;;;;;;14.00;99.90;;;;;;5069840;28;20412;-70
2022/07/18 04:17:12;;;;;;;;;;;14.00;99.90;;;;;;5055452;28;19912;-70
2022/07/18 04:19:37;;;;;;;;;;;14.00;99.90;;;;;;5073360;28;19920;-69
2022/07/18 04:22:03;;;;;;;;;;;14.00;99.90;;;;;;5073231;28;19916;-70
2022/07/18 04:24:28;;;;;;;;;;;14.20;99.90;;;;;;5073178;28;20003;-69
2022/07/18 04:26:54;;;;;;;;;;;14.20;99.90;;;;;;5073066;28;19970;-70
2022/07/18 04:29:19;;;;;;;;;;;14.30;99.90;;;;;;5072971;28;20003;-70
2022/07/18 04:31:45;;;;;;;;;;;14.40;99.90;;;;;;5073010;28;19919;-70
2022/07/18 04:34:10;;;;;;;;;;;14.50;99.90;;;;;;5054839;28;20281;-70
2022/07/18 04:36:36;;;;;;;;;;;14.60;99.90;;;;;;5073066;28;19959;-70
2022/07/18 04:39:01;;;;;;;;;;;14.50;99.90;;;;;;5072977;28;19916;-70
2022/07/18 04:41:27;;;;;;;;;;;14.60;99.90;;;;;;5072914;28;19924;-70
2022/07/18 04:43:52;;;;;;;;;;;14.60;99.90;;;;;;5072929;28;19918;-70
2022/07/18 04:46:17;;;;;;;;;;;14.70;99.90;;;;;;5073445;28;19913;-70
2022/07/18 04:48:43;;;;;;;;;;;14.70;99.90;;;;;;5072764;28;19980;-70
2022/07/18 04:51:08;;;;;;;;;;;14.80;99.90;;;;;;5072843;28;19912;-69
2022/07/18 04:53:34;;;;;;;;;;;14.90;99.90;;;;;;5054637;28;19958;-70
2022/07/18 04:55:59;;;;;;;;;;;15.00;99.90;;;;;;5073096;28;19922;-70
2022/07/18 04:58:25;;;;;;;;;;;15.00;99.90;;;;;;5072559;28;20315;-70
2022/07/18 05:00:51;;;;;;;;;;;15.10;99.90;;;;;;5072831;28;19927;-70
2022/07/18 05:03:16;;;;;;;;;;;15.10;99.90;;;;;;5072502;28;19909;-70
2022/07/18 05:05:42;;;;;;;;;;;15.10;99.90;;;;;;5072330;28;19916;-70
2022/07/18 05:08:07;;;;;;;;;;;15.20;99.90;;;;;;5072270;28;20392;-70
2022/07/18 05:10:33;;;;;;;;;;;15.30;99.90;;;;;;5072479;28;19920;-70
2022/07/18 05:12:58;;;;;;;;;;;15.30;99.90;;;;;;5072172;28;19918;-69
2022/07/18 05:15:24;;;;;;;;;;;15.40;99.90;;;;;;5071849;28;19932;-70
2022/07/18 05:17:50;;;;;;;;;;;15.50;99.90;;;;;;5072195;28;19912;-70
2022/07/18 05:20:17;;;;;;;;;;;15.60;99.90;;;;;;5071868;28;19917;-70
2022/07/18 05:22:42;;;;;;;;;;;15.60;99.90;;;;;;5072109;28;20007;-70
2022/07/18 05:25:08;;;;;;;;;;;15.70;99.90;;;;;;5072184;28;20007;-70
2022/07/18 05:27:34;;;;;;;;;;;15.70;99.90;;;;;;5071513;28;19935;-70
2022/07/18 05:30:00;;;;;;;;;;;15.80;99.90;;;;;;5072006;28;20275;-70
2022/07/18 05:32:25;;;;;;;;;;;15.80;99.90;;;;;;5072009;28;19919;-71
2022/07/18 05:34:51;;;;;;;;;;;16.00;99.90;;;;;;5072025;28;20245;-69
2022/07/18 05:37:17;;;;;;;;;;;16.10;99.90;;;;;;5071896;28;19909;-70
2022/07/18 05:39:42;;;;;;;;;;;16.10;99.90;;;;;;5071755;28;20011;-70
2022/07/18 05:42:08;;;;;;;;;;;16.20;99.90;;;;;;5071863;28;19974;-70
2022/07/18 05:44:33;;;;;;;;;;;16.30;99.90;;;;;;5071521;28;19927;-70
2022/07/18 05:46:59;;;;;;;;;;;16.40;99.90;;;;;;5071575;28;19909;-70
2022/07/18 05:49:24;;;;;;;;;;;16.50;99.90;;;;;;5053371;28;20338;-70
2022/07/18 05:51:49;;;;;;;;;;;16.60;99.90;;;;;;5071311;28;20308;-70
2022/07/18 05:54:18;;;;;;;;;;;16.60;99.90;;;;;;5071440;28;19956;-70
2022/07/18 05:56:47;;;;;;;;;;;16.70;99.90;;;;;;5071223;28;19913;-70
2022/07/18 05:59:13;;;;;;;;;;;16.80;99.90;;;;;;5053092;28;19947;-70
2022/07/18 06:01:39;;;;;;;;;;;16.80;99.90;;;;;;5071204;28;19913;-70
2022/07/18 06:04:05;;;;;;;;;;;16.90;99.90;;;;;;5071435;28;19955;-70
2022/07/18 06:06:31;;;;;;;;;;;17.00;99.90;;;;;;5071277;28;19970;-70
2022/07/18 06:08:56;;;;;;;;;;;17.00;99.90;;;;;;5071117;28;19909;-70
2022/07/18 06:11:22;;;;;;;;;;;17.20;99.90;;;;;;5071166;28;19908;-70
2022/07/18 06:13:47;;;;;;;;;;;17.20;99.90;;;;;;5070907;28;19912;-70
2022/07/18 06:16:13;;;;;;;;;;;17.30;99.90;;;;;;5053068;28;19985;-70
2022/07/18 06:18:38;;;;;;;;;;;17.40;99.90;;;;;;5052752;28;19909;-70
2022/07/18 06:21:04;;;;;;;;;;;17.50;99.90;;;;;;5070816;28;19976;-70
2022/07/18 06:23:30;;;;;;;;;;;17.60;99.90;;;;;;5070627;28;19908;-71
2022/07/18 06:25:56;;;;;;;;;;;17.60;99.90;;;;;;5070315;28;19916;-71
2022/07/18 06:28:21;;;;;;;;;;;17.70;99.90;;;;;;5053137;28;20368;-71
2022/07/18 06:30:47;;;;;;;;;;;17.80;99.90;;;;;;5070228;28;19935;-70
2022/07/18 06:33:13;;;;;;;;;;;17.80;99.90;;;;;;5070940;28;19909;-66
2022/07/18 06:35:39;;;;;;;;;;;17.90;99.90;;;;;;5071091;28;19917;-67
2022/07/18 06:38:05;;;;;;;;;;;17.90;99.90;;;;;;5070427;28;19999;-66
2022/07/18 06:40:30;;;;;;;;;;;18.00;99.90;;;;;;5070405;28;20019;-67
2022/07/18 06:42:56;;;;;;;;;;;18.10;99.90;;;;;;5070162;28;19915;-66
2022/07/18 06:45:21;;;;;;;;;;;18.10;99.90;;;;;;5070612;28;19917;-67
2022/07/18 06:47:47;;;;;;;;;;;18.00;99.90;;;;;;5069234;28;20002;-66
2022/07/18 06:50:13;;;;;;;;;;;18.30;99.90;;;;;;5070464;28;20375;-67
2022/07/18 06:52:42;;;;;;;;;;;18.30;99.90;;;;;;5070222;28;19960;-67
2022/07/18 06:55:09;;;;;;;;;;;18.40;99.90;;;;;;5070495;28;20503;-66
2022/07/18 06:57:35;;;;;;;;;;;18.60;99.90;;;;;;5070589;28;19912;-67
2022/07/18 07:00:00;;;;;;;;;;;18.60;99.90;;;;;;5070198;28;20434;-67
2022/07/18 07:02:26;;;;;;;;;;;18.70;99.90;;;;;;5070136;28;19913;-66
2022/07/18 07:04:51;;;;;;;;;;;18.70;99.90;;;;;;5070107;28;19917;-66
2022/07/18 07:07:17;;;;;;;;;;;18.70;99.90;;;;;;5070183;28;19909;-67
2022/07/18 07:09:43;;;;;;;;;;;18.70;99.90;;;;;;5070259;28;20324;-66
2022/07/18 07:12:10;;;;;;;;;;;18.80;99.90;;;;;;5070013;28;19940;-67
2022/07/18 07:14:35;;;;;;;;;;;18.90;99.90;;;;;;5070318;28;19920;-66
2022/07/18 07:17:01;;;;;;;;;;;19.00;99.90;;;;;;5070124;28;19962;-67
2022/07/18 07:19:26;;;;;;;;;;;19.00;99.90;;;;;;5070367;28;19917;-66
2022/07/18 07:21:52;;;;;;;;;;;19.20;99.90;;;;;;5069843;28;19913;-67
2022/07/18 07:24:17;;;;;;;;;;;19.30;99.90;;;;;;5070684;28;19917;-66
2022/07/18 07:26:43;;;;;;;;;;;19.30;99.90;;;;;;5070233;28;19934;-66
2022/07/18 07:29:08;;;;;;;;;;;19.10;99.90;;;;;;5070322;28;20359;-67
2022/07/18 07:31:34;;;;;;;;;;;19.20;99.90;;;;;;5069897;28;19913;-67
2022/07/18 07:33:59;;;;;;;;;;;19.30;99.90;;;;;;5070153;28;19935;-66
2022/07/18 07:36:25;;;;;;;;;;;19.50;99.90;;;;;;5070423;28;20149;-67
2022/07/18 07:38:50;;;;;;;;;;;19.70;99.90;;;;;;5069624;28;19920;-67
2022/07/18 07:41:16;;;;;;;;;;;19.70;99.90;;;;;;5068889;28;19921;-66
2022/07/18 07:43:41;;;;;;;;;;;19.70;99.90;;;;;;5070005;28;20042;-66
2022/07/18 07:46:07;;;;;;;;;;;19.70;99.90;;;;;;5069904;28;20360;-67
2022/07/18 07:48:32;;;;;;;;;;;19.80;99.90;;;;;;5070032;28;19962;-66
2022/07/18 07:50:58;;;;;;;;;;;20.00;99.90;;;;;;5072478;28;19928;-67
2022/07/18 07:53:23;;;;;;;;;;;20.10;99.90;;;;;;5073869;28;19912;-67
2022/07/18 07:55:49;;;;;;;;;;;20.30;99.90;;;;;;5074180;28;19916;-66
2022/07/18 07:58:14;;;;;;;;;;;20.50;99.90;;;;;;5073583;28;20359;-67
2022/07/18 08:00:40;;;;;;;;;;;20.60;99.90;;;;;;5073970;28;20015;-66
2022/07/18 08:03:06;;;;;;;;;;;20.60;99.90;;;;;;5073470;28;19912;-67
2022/07/18 08:05:33;;;;;;;;;;;20.60;99.90;;;;;;5073426;28;19920;-67
2022/07/18 08:07:59;;;;;;;;;;;20.70;99.90;;;;;;5073417;28;19919;-66
2022/07/18 08:10:25;;;;;;;;;;;20.80;99.90;;;;;;5073691;28;19932;-66
2022/07/18 08:12:50;;;;;;;;;;;20.80;99.90;;;;;;5073289;28;19934;-66
2022/07/18 08:15:16;;;;;;;;;;;21.00;99.90;;;;;;5073065;28;19916;-66
2022/07/18 08:17:41;;;;;;;;;;;21.30;99.90;;;;;;5073033;28;19913;-67
2022/07/18 08:20:07;;;;;;;;;;;21.60;99.90;;;;;;5072959;28;19924;-66
2022/07/18 08:22:33;;;;;;;;;;;21.60;99.90;;;;;;5072726;28;19956;-66
2022/07/18 08:24:58;;;;;;;;;;;21.60;99.90;;;;;;5054827;28;20288;-65
2022/07/18 08:27:24;;;;;;;;;;;21.40;99.90;;;;;;5072737;28;20284;-65
2022/07/18 08:29:49;;;;;;;;;;;21.60;99.90;;;;;;5073256;28;19931;-66
2022/07/18 08:32:15;;;;;;;;;;;21.70;99.90;;;;;;5072882;28;20011;-65
2022/07/18 08:34:40;;;;;;;;;;;21.50;99.90;;;;;;5072299;28;19916;-65
2022/07/18 08:37:06;;;;;;;;;;;21.60;99.90;;;;;;5072708;28;19958;-66
2022/07/18 08:39:32;;;;;;;;;;;21.90;99.90;;;;;;5072855;28;19946;-65
2022/07/18 08:41:59;;;;;;;;;;;22.20;99.90;;;;;;5072821;28;19986;-66
2022/07/18 08:44:25;;;;;;;;;;;22.40;99.90;;;;;;5072840;28;20288;-65
2022/07/18 08:46:53;;;;;;;;;;;22.20;99.90;;;;;;5072809;28;19908;-66
2022/07/18 08:49:20;;;;;;;;;;;21.90;99.90;;;;;;5072438;28;19925;-66
2022/07/18 08:51:46;;;;;;;;;;;21.90;99.90;;;;;;5054288;28;19948;-66
2022/07/18 08:54:12;;;;;;;;;;;22.30;99.90;;;;;;5072713;28;19950;-66
2022/07/18 08:56:37;;;;;;;;;;;22.80;99.90;;;;;;5072542;28;19909;-66
2022/07/18 08:59:03;;;;;;;;;;;23.20;99.40;;;;;;5072421;28;19956;-66
2022/07/18 09:01:30;;;;;;;;;;;23.10;99.70;;;;;;5071603;28;20051;-66
2022/07/18 09:06:49;;;;;;;;;;;23.40;98.80;;;;;;5072433;28;19999;-68
2022/07/18 09:09:16;;;;;;;;;;;23.10;98.30;;;;;;5072258;28;19920;-66
2022/07/18 09:11:49;;;;;;;;;;;22.60;98.90;;;;;;5072122;28;19935;-66
2022/07/18 09:14:38;;;;;;;;;;;22.60;99.30;;;;;;5072363;28;19931;-67
2022/07/18 09:17:09;;;;;;;;;;;23.00;99.30;;;;;;5072211;28;19908;-66
2022/07/18 09:19:35;;;;;;;;;;;23.40;98.90;;;;;;5072235;28;20409;-66
2022/07/18 09:22:13;;;;;;;;;;;23.20;99.10;;;;;;5072204;28;19956;-66
2022/07/18 09:24:58;;;;;;;;;;;23.20;98.60;;;;;;5072173;28;19920;-67
2022/07/18 09:27:26;;;;;;;;;;;23.60;98.30;;;;;;5071701;28;19999;-67
2022/07/18 09:30:10;;;;;;;;;;;24.00;96.60;;;;;;5071471;28;19962;-67
2022/07/18 09:32:36;;;;;;;;;;;23.90;96.50;;;;;;5071886;28;20007;-67
2022/07/18 09:35:05;;;;;;;;;;;23.70;96.30;;;;;;5071917;28;20024;-67
2022/07/18 09:37:31;;;;;;;;;;;23.30;97.10;;;;;;5071692;28;19931;-66
2022/07/18 09:40:16;;;;;;;;;;;23.40;97.30;;;;;;5071601;28;19916;-67
2022/07/18 09:42:41;;;;;;;;;;;23.70;96.30;;;;;;5071310;28;20338;-67
2022/07/18 09:45:07;;;;;;;;;;;24.00;96.00;;;;;;5071650;28;19917;-66
2022/07/18 09:47:48;;;;;;;;;;;24.30;96.40;;;;;;5071243;28;19909;-67
2022/07/18 09:50:24;;;;;;;;;;;24.50;95.00;;;;;;5071278;28;19924;-67
2022/07/18 09:53:03;;;;;;;;;;;24.40;95.10;;;;;;5071187;28;19912;-67
2022/07/18 09:55:29;;;;;;;;;;;24.10;95.90;;;;;;5071499;28;20206;-66
2022/07/18 09:58:01;;;;;;;;;;;23.80;95.70;;;;;;5071315;28;19912;-66
2022/07/18 10:00:30;;;;;;;;;;;23.60;95.30;;;;;;5071229;28;19989;-66
2022/07/18 10:02:57;;;;;;;;;;;23.30;94.70;;;;;;5070711;28;19917;-66
2022/07/18 10:05:22;;;;;;;;;;;23.40;94.60;;;;;;5071141;28;19920;-65
2022/07/18 10:07:48;;;;;;;;;;;23.90;94.20;;;;;;5070840;28;20307;-67
2022/07/18 10:10:15;;;;;;;;;;;24.30;93.40;;;;;;5053057;28;19928;-67
2022/07/18 10:12:41;;;;;;;;;;;24.70;93.40;;;;;;5070694;28;20062;-66
2022/07/18 10:15:07;;;;;;;;;;;25.30;93.10;;;;;;5070857;28;19971;-67
2022/07/18 10:17:33;;;;;;;;;;;25.70;92.10;;;;;;5070286;28;19966;-66
2022/07/18 10:20:05;;;;;;;;;;;25.40;92.40;;;;;;5070568;28;19925;-66
2022/07/18 10:22:38;;;;;;;;;;;24.90;92.50;;;;;;5070630;28;19912;-66
2022/07/18 10:25:05;;;;;;;;;;;24.40;92.40;;;;;;5070572;28;19917;-66
2022/07/18 10:27:47;;;;;;;;;;;24.30;93.30;;;;;;5070437;28;20022;-66
2022/07/18 10:30:13;;;;;;;;;;;24.60;92.20;;;;;;5070453;28;19917;-66
2022/07/18 10:32:38;;;;;;;;;;;25.00;92.00;;;;;;5070329;28;19912;-66
2022/07/18 10:35:06;;;;;;;;;;;25.00;92.00;;;;;;5070568;28;20322;-66
2022/07/18 10:37:35;;;;;;;;;;;24.60;92.10;;;;;;5070669;28;19966;-66
2022/07/18 10:40:19;;;;;;;;;;;24.20;92.50;;;;;;5070459;28;19916;-66
2022/07/18 10:42:44;;;;;;;;;;;23.70;93.00;;;;;;5069868;28;20292;-65
2022/07/18 10:45:29;;;;;;;;;;;23.30;93.20;;;;;;5070201;28;19916;-66
2022/07/18 10:47:54;;;;;;;;;;;23.60;93.30;;;;;;5070339;28;20456;-65
2022/07/18 10:50:19;;;;;;;;;;;23.80;92.50;;;;;;5070525;28;20015;-66
2022/07/18 10:52:48;;;;;;;;;;;23.60;93.40;;;;;;5070149;28;19936;-66
2022/07/18 10:55:22;;;;;;;;;;;23.40;93.30;;;;;;5070507;28;19916;-66
2022/07/18 10:57:48;;;;;;;;;;;23.00;93.60;;;;;;5070249;28;19971;-66
2022/07/18 11:00:14;;;;;;;;;;;22.80;94.40;;;;;;5051781;28;19917;-66
2022/07/18 11:02:41;;;;;;;;;;;22.60;94.60;;;;;;5070204;28;19912;-67
2022/07/18 11:05:25;;;;;;;;;;;22.60;94.90;;;;;;5070434;28;20336;-67
2022/07/18 11:08:12;;;;;;;;;;;23.10;94.60;;;;;;5069823;28;19956;-66
2022/07/18 11:10:41;;;;;;;;;;;24.10;93.60;;;;;;5053270;28;19917;-66
2022/07/18 11:13:35;;;;;;;;;;;24.30;92.80;;;;;;5053863;28;20356;-66
2022/07/18 11:16:04;;;;;;;;;;;24.40;93.10;;;;;;5055706;28;19921;-66
2022/07/18 11:18:30;;;;;;;;;;;25.00;92.10;;;;;;5058539;28;19923;-65
2022/07/18 11:20:56;;;;;;;;;;;25.30;91.10;;;;;;5049748;28;19924;-65
2022/07/18 11:23:28;;;;;;;;;;;25.70;90.60;;;;;;5050129;28;19913;-66
2022/07/18 11:25:55;;;;;;;;;;;25.50;88.20;;;;;;5052491;28;19923;-65
2022/07/18 11:28:21;;;;;;;;;;;25.40;88.70;;;;;;5035865;28;19921;-65
2022/07/18 11:30:58;;;;;;;;;;;25.70;88.40;;;;;;5054450;28;19928;-66
2022/07/18 11:33:25;;;;;;;;;;;25.40;86.40;;;;;;5054109;28;20045;-65
2022/07/18 11:35:51;;;;;;;;;;;24.60;88.20;;;;;;5054371;28;20272;-68
2022/07/18 11:38:17;;;;;;;;;;;24.00;89.80;;;;;;5035770;28;19909;-66
2022/07/18 11:40:46;;;;;;;;;;;23.50;91.00;;;;;;5053717;28;19932;-65
2022/07/18 11:43:18;;;;;;;;;;;23.10;91.30;;;;;;5036136;28;19920;-66
2022/07/18 11:45:44;;;;;;;;;;;23.10;91.80;;;;;;5054328;28;19916;-65
2022/07/18 11:48:09;;;;;;;;;;;23.30;91.80;;;;;;5053865;28;20383;-66
2022/07/18 11:50:36;;;;;;;;;;;23.90;92.20;;;;;;5053994;28;20308;-66
2022/07/18 11:53:01;;;;;;;;;;;24.70;91.10;;;;;;5053707;28;19983;-65
2022/07/18 11:55:34;;;;;;;;;;;25.00;90.30;;;;;;5054008;28;19916;-65
2022/07/18 11:58:26;;;;;;;;;;;24.90;90.40;;;;;;5053792;28;20372;-66
2022/07/18 12:00:57;;;;;;;;;;;24.90;87.50;;;;;;5051607;28;19924;-65
2022/07/18 12:03:23;;;;;;;;;;;24.90;87.40;;;;;;5053658;28;19915;-65
2022/07/18 12:05:50;;;;;;;;;;;24.90;88.40;;;;;;5053975;28;20015;-66
2022/07/18 12:08:35;;;;;;;;;;;25.20;89.20;;;;;;5053307;28;19963;-66
2022/07/18 12:11:09;;;;;;;;;;;25.40;88.80;;;;;;5053193;28;19923;-66
2022/07/18 12:13:54;;;;;;;;;;;25.60;87.80;;;;;;5053377;28;19920;-66
2022/07/18 12:16:40;;;;;;;;;;;25.60;87.80;;;;;;5053199;28;19948;-66
2022/07/18 12:19:08;;;;;;;;;;;25.30;88.10;;;;;;5052606;28;20003;-66
2022/07/18 12:21:48;;;;;;;;;;;24.90;89.50;;;;;;5053147;28;20002;-66
2022/07/18 12:24:22;;;;;;;;;;;24.20;90.10;;;;;;5053529;28;20357;-67
2022/07/18 12:26:48;;;;;;;;;;;24.30;90.90;;;;;;5052989;28;20327;-66
2022/07/18 12:29:13;;;;;;;;;;;24.30;90.70;;;;;;5053066;28;20035;-66
2022/07/18 12:31:43;;;;;;;;;;;24.30;89.20;;;;;;5034789;28;20269;-65
2022/07/18 12:34:19;;;;;;;;;;;24.00;87.40;;;;;;5052791;28;19943;-66
2022/07/18 12:36:55;;;;;;;;;;;23.80;87.10;;;;;;5052541;28;20270;-66
2022/07/18 12:39:27;;;;;;;;;;;23.80;87.70;;;;;;5052962;28;19924;-66
2022/07/18 12:41:52;;;;;;;;;;;23.90;87.90;;;;;;5052532;28;19928;-65
2022/07/18 12:44:18;;;;;;;;;;;24.00;90.00;;;;;;5052730;28;20373;-66
2022/07/18 12:46:43;;;;;;;;;;;24.20;91.00;;;;;;5052316;28;19913;-66
2022/07/18 12:49:09;;;;;;;;;;;24.30;91.80;;;;;;5053008;28;19916;-66
2022/07/18 12:51:34;;;;;;;;;;;24.20;91.10;;;;;;5052756;28;19923;-66
2022/07/18 12:54:00;;;;;;;;;;;24.20;90.70;;;;;;5052569;28;19999;-66
2022/07/18 12:56:25;;;;;;;;;;;24.30;90.60;;;;;;5052249;28;19959;-65
2022/07/18 12:58:51;;;;;;;;;;;24.20;90.10;;;;;;5052127;28;20264;-67
2022/07/18 13:01:16;;;;;;;;;;;24.30;90.30;;;;;;5052371;28;20019;-67
2022/07/18 13:03:41;;;;;;;;;;;24.40;90.10;;;;;;5052295;28;20395;-66
2022/07/18 13:06:07;;;;;;;;;;;24.40;90.10;;;;;;5052377;28;19916;-66
2022/07/18 13:08:32;;;;;;;;;;;24.40;90.80;;;;;;5052039;28;19940;-66
2022/07/18 13:10:58;;;;;;;;;;;24.30;91.30;;;;;;5052188;28;19921;-65
2022/07/18 13:13:24;;;;;;;;;;;24.30;90.90;;;;;;5052034;28;19912;-66
2022/07/18 13:15:50;;;;;;;;;;;24.20;91.40;;;;;;5034152;28;19948;-65
2022/07/18 13:18:15;;;;;;;;;;;24.20;91.00;;;;;;5052125;28;19912;-67
2022/07/18 13:20:41;;;;;;;;;;;24.20;88.80;;;;;;5052336;28;20296;-66
2022/07/18 13:23:07;;;;;;;;;;;24.10;87.10;;;;;;5033864;28;19920;-66
2022/07/18 13:25:32;;;;;;;;;;;24.10;86.70;;;;;;5052168;28;19920;-65
2022/07/18 13:27:58;;;;;;;;;;;24.10;86.80;;;;;;5051915;28;19917;-66
2022/07/18 13:30:24;;;;;;;;;;;24.00;89.20;;;;;;5052376;28;19916;-65
2022/07/18 13:32:49;;;;;;;;;;;24.10;89.90;;;;;;5051589;28;19916;-66
2022/07/18 13:35:15;;;;;;;;;;;24.00;90.30;;;;;;5051839;28;20440;-66
2022/07/18 13:37:40;;;;;;;;;;;24.00;90.90;;;;;;5051541;28;19920;-66
2022/07/18 13:40:07;;;;;;;;;;;23.90;90.50;;;;;;5051689;28;19917;-67
2022/07/18 13:42:32;;;;;;;;;;;23.80;90.50;;;;;;5051309;28;20277;-65
2022/07/18 13:44:58;;;;;;;;;;;23.60;90.30;;;;;;5051936;28;19928;-66
2022/07/18 13:47:24;;;;;;;;;;;23.40;90.90;;;;;;5051552;28;19909;-66
2022/07/18 13:49:49;;;;;;;;;;;23.20;91.30;;;;;;5051208;28;20312;-66
2022/07/18 13:52:15;;;;;;;;;;;23.10;90.80;;;;;;5051934;28;20462;-65
2022/07/18 13:54:40;;;;;;;;;;;23.10;90.30;;;;;;5051564;28;19947;-65
2022/07/18 13:57:06;;;;;;;;;;;22.90;90.70;;;;;;5051211;28;19955;-65
2022/07/18 13:59:31;;;;;;;;;;;22.90;91.10;;;;;;5051409;28;19920;-66
2022/07/18 14:01:57;;;;;;;;;;;22.90;91.40;;;;;;5051226;28;19921;-66
2022/07/18 14:04:22;;;;;;;;;;;22.90;91.40;;;;;;5051197;28;20320;-65
2022/07/18 14:06:48;;;;;;;;;;;22.80;92.00;;;;;;5051104;28;20431;-66
2022/07/18 14:09:14;;;;;;;;;;;22.80;92.00;;;;;;5051234;28;19956;-66
2022/07/18 14:11:39;;;;;;;;;;;22.70;91.40;;;;;;5051184;28;19916;-66
2022/07/18 14:14:05;;;;;;;;;;;22.70;92.40;;;;;;5050957;28;20252;-66
2022/07/18 14:16:31;;;;;;;;;;;22.70;92.30;;;;;;5050996;28;20016;-66
2022/07/18 14:18:56;;;;;;;;;;;22.80;91.90;;;;;;5050867;28;20339;-66
2022/07/18 14:21:22;;;;;;;;;;;22.90;91.40;;;;;;5051019;28;19912;-67